Time;durP1;ratioP1;P1;durP2;ratioP2;P2;SDS_P1;SDS_P2;PMS_P1;PMS_P2;Temp;Humidity;BMP_temperature;BMP_pressure;BME280_temperature;BME280_humidity;BME280_pressure;Samples;Min_cycle;Max_cycle;Signal;HPM_P1;HPM_P2
2021/10/02 00:36:00;;;;;;;24.65;18.35;;;14.30;99.90;;;;;;5006612;28;25092;-63
2021/10/02 00:41:35;;;;;;;26.38;17.88;;;14.30;99.90;;;;;;5012611;28;25120;-67
2021/10/02 00:46:40;;;;;;;31.02;19.23;;;14.20;99.90;;;;;;5005954;28;25062;-64
2021/10/02 00:49:08;;;;;;;29.83;21.67;;;14.10;99.90;;;;;;5009498;28;25063;-63
2021/10/02 00:51:33;;;;;;;33.80;21.90;;;14.10;99.90;;;;;;5002597;28;25131;-62
2021/10/02 00:53:59;;;;;;;29.80;18.83;;;14.10;99.90;;;;;;5008592;28;25072;-63
2021/10/02 00:56:24;;;;;;;28.10;19.80;;;14.10;99.90;;;;;;5007671;28;25114;-63
2021/10/02 00:58:51;;;;;;;28.00;20.70;;;14.10;99.90;;;;;;5009547;28;25084;-62
2021/10/02 01:01:31;;;;;;;28.95;19.50;;;14.00;99.90;;;;;;5008844;28;25055;-62
2021/10/02 01:04:10;;;;;;;25.52;20.02;;;14.10;99.90;;;;;;4979843;28;25082;-63
2021/10/02 01:06:59;;;;;;;29.48;20.52;;;14.10;99.90;;;;;;5004212;28;25115;-62
2021/10/02 01:09:31;;;;;;;31.30;21.98;;;14.10;99.90;;;;;;4998696;28;25079;-63
2021/10/02 01:12:03;;;;;;;32.43;22.27;;;14.00;99.90;;;;;;5010511;28;25137;-62
2021/10/02 01:14:48;;;;;;;36.55;23.70;;;14.00;99.90;;;;;;5008577;28;25151;-63
2021/10/02 01:17:19;;;;;;;29.23;20.85;;;14.00;99.90;;;;;;5007360;28;25075;-63
2021/10/02 01:20:04;;;;;;;31.50;21.55;;;14.00;99.90;;;;;;5000421;28;25313;-63
2021/10/02 01:23:06;;;;;;;33.28;19.77;;;14.00;99.90;;;;;;5005680;28;25076;-63
2021/10/02 01:26:16;;;;;;;31.20;19.13;;;14.10;99.90;;;;;;4989091;28;25066;-62
2021/10/02 01:28:44;;;;;;;29.67;19.45;;;14.20;99.90;;;;;;4956899;28;25070;-62
2021/10/02 01:34:10;;;;;;;30.92;20.40;;;14.30;99.90;;;;;;4998131;28;25080;-64
2021/10/02 01:37:04;;;;;;;36.92;21.13;;;14.30;99.90;;;;;;5000540;28;25078;-63
2021/10/02 01:47:53;;;;;;;28.40;16.52;;;14.30;99.90;;;;;;5004601;28;25167;-62
2021/10/02 01:50:24;;;;;;;29.58;19.35;;;14.30;99.90;;;;;;5004433;28;25149;-63
2021/10/02 01:52:51;;;;;;;27.02;20.38;;;14.40;99.90;;;;;;5005708;28;25131;-62
2021/10/02 01:55:18;;;;;;;32.55;20.48;;;14.30;99.90;;;;;;5003766;28;25055;-64
2021/10/02 01:57:50;;;;;;;30.55;20.63;;;14.30;99.90;;;;;;4996968;28;25060;-63
2021/10/02 02:00:17;;;;;;;34.13;20.63;;;14.30;99.90;;;;;;5006551;28;25075;-63
2021/10/02 02:02:48;;;;;;;31.52;20.05;;;14.40;99.90;;;;;;5008882;28;25061;-63
2021/10/02 02:05:17;;;;;;;29.75;20.60;;;14.40;99.90;;;;;;5019748;28;25103;-64
2021/10/02 02:07:48;;;;;;;29.70;19.77;;;14.40;99.90;;;;;;5017692;28;25078;-63
2021/10/02 02:10:15;;;;;;;33.60;17.23;;;14.40;99.90;;;;;;5014648;28;25062;-63
2021/10/02 02:12:42;;;;;;;32.30;20.95;;;14.40;99.90;;;;;;5003978;28;25138;-63
2021/10/02 02:15:10;;;;;;;26.65;19.55;;;14.30;99.90;;;;;;5006880;28;25065;-64
2021/10/02 02:17:39;;;;;;;31.92;20.10;;;14.40;99.90;;;;;;5000764;28;24970;-63
2021/10/02 02:20:07;;;;;;;26.77;18.63;;;14.40;99.90;;;;;;5014364;28;25104;-64
2021/10/02 02:22:33;;;;;;;27.98;19.30;;;14.40;99.90;;;;;;5007450;28;25166;-62
2021/10/02 02:24:58;;;;;;;33.30;21.80;;;14.30;99.90;;;;;;5019623;28;25091;-63
2021/10/02 02:27:25;;;;;;;36.00;20.50;;;14.20;99.90;;;;;;5012916;28;25136;-62
2021/10/02 02:29:51;;;;;;;34.47;20.00;;;14.10;99.90;;;;;;5010074;28;25045;-62
2021/10/02 02:32:18;;;;;;;26.95;20.50;;;14.10;99.90;;;;;;4999013;28;25041;-63
2021/10/02 02:34:47;;;;;;;34.85;18.98;;;14.00;99.90;;;;;;5005579;28;25131;-63
2021/10/02 02:37:13;;;;;;;32.63;19.70;;;14.00;99.90;;;;;;5010113;28;25077;-62
2021/10/02 02:39:39;;;;;;;35.15;21.15;;;13.90;99.90;;;;;;5012035;28;25122;-63
2021/10/02 02:42:05;;;;;;;35.03;22.52;;;14.00;99.90;;;;;;5006588;28;25157;-63
2021/10/02 02:44:31;;;;;;;35.92;22.27;;;13.90;99.90;;;;;;5008895;28;25089;-62
2021/10/02 02:47:06;;;;;;;40.10;20.30;;;13.80;99.90;;;;;;5007375;28;25091;-63
2021/10/02 02:49:46;;;;;;;32.60;21.55;;;13.80;99.90;;;;;;5006181;28;25082;-62
2021/10/02 02:52:18;;;;;;;31.63;20.90;;;13.70;99.90;;;;;;5005750;28;25064;-63
2021/10/02 02:55:02;;;;;;;34.85;21.55;;;13.70;99.90;;;;;;4988516;28;25137;-64
2021/10/02 02:57:34;;;;;;;38.63;22.02;;;13.70;99.90;;;;;;5009475;28;25085;-63
2021/10/02 03:00:10;;;;;;;34.53;20.83;;;13.60;99.90;;;;;;5007829;28;25116;-63
2021/10/02 03:02:46;;;;;;;49.33;23.25;;;13.70;99.90;;;;;;5005980;28;25067;-62
2021/10/02 03:05:12;;;;;;;33.53;22.35;;;13.60;99.90;;;;;;4997434;28;25099;-63
2021/10/02 03:07:47;;;;;;;41.28;23.27;;;13.60;99.90;;;;;;5003898;28;25155;-64
2021/10/02 03:10:14;;;;;;;43.72;24.38;;;13.60;99.90;;;;;;5000642;28;25164;-63
2021/10/02 03:12:42;;;;;;;39.75;21.65;;;13.60;99.90;;;;;;4980251;28;25125;-64
2021/10/02 03:15:11;;;;;;;34.70;20.40;;;13.50;99.90;;;;;;5011975;28;25055;-63
2021/10/02 03:17:38;;;;;;;43.80;24.58;;;13.50;99.90;;;;;;5007177;28;25063;-62
2021/10/02 03:20:06;;;;;;;34.97;22.02;;;13.50;99.90;;;;;;5004289;28;25135;-63
2021/10/02 03:22:33;;;;;;;34.90;21.75;;;13.50;99.90;;;;;;5005209;28;25151;-63
2021/10/02 03:25:00;;;;;;;39.22;25.50;;;13.50;99.90;;;;;;4991009;28;25137;-63
2021/10/02 03:27:28;;;;;;;39.92;25.05;;;13.50;99.90;;;;;;4996316;28;25069;-63
2021/10/02 03:29:55;;;;;;;46.40;25.30;;;13.40;99.90;;;;;;4991754;28;25137;-63
2021/10/02 03:32:23;;;;;;;44.63;26.40;;;13.40;99.90;;;;;;4993390;28;25063;-63
2021/10/02 03:34:51;;;;;;;40.38;23.02;;;13.40;99.90;;;;;;5013182;28;25086;-64
2021/10/02 03:37:17;;;;;;;43.05;26.25;;;13.40;99.90;;;;;;4995803;28;26104;-63
2021/10/02 03:39:42;;;;;;;50.33;29.90;;;13.40;99.90;;;;;;5009211;28;25088;-63
2021/10/02 03:42:20;;;;;;;43.25;28.23;;;13.30;99.90;;;;;;5000724;28;25076;-63
2021/10/02 03:44:47;;;;;;;48.72;27.85;;;13.30;99.90;;;;;;4987387;28;25156;-62
2021/10/02 03:47:18;;;;;;;44.95;26.85;;;13.30;99.90;;;;;;5008321;28;25132;-63
2021/10/02 03:49:45;;;;;;;32.03;20.77;;;13.30;99.90;;;;;;5006117;28;25078;-63
2021/10/02 03:52:12;;;;;;;36.55;25.95;;;13.30;99.90;;;;;;5002226;28;25068;-63
2021/10/02 03:54:39;;;;;;;39.35;25.58;;;13.30;99.90;;;;;;4985650;28;25117;-63
2021/10/02 03:57:04;;;;;;;42.47;25.65;;;13.40;99.90;;;;;;5007113;28;25126;-62
2021/10/02 03:59:31;;;;;;;50.40;27.83;;;13.40;99.90;;;;;;5006497;28;25096;-63
2021/10/02 04:01:56;;;;;;;41.60;25.45;;;13.30;99.90;;;;;;5005561;28;25079;-63
2021/10/02 04:04:22;;;;;;;39.70;24.33;;;13.30;99.90;;;;;;5006833;28;25074;-64
2021/10/02 04:06:49;;;;;;;38.53;24.92;;;13.20;99.90;;;;;;5005809;28;25055;-61
2021/10/02 04:09:15;;;;;;;38.13;24.08;;;13.20;99.90;;;;;;5009092;28;25062;-63
2021/10/02 04:11:41;;;;;;;44.22;25.58;;;13.20;99.90;;;;;;5002411;28;25063;-63
2021/10/02 04:14:06;;;;;;;34.00;23.92;;;13.20;99.90;;;;;;5002412;28;25130;-63
2021/10/02 04:16:32;;;;;;;37.63;24.42;;;13.20;99.90;;;;;;4997795;28;25091;-63
2021/10/02 04:18:59;;;;;;;37.60;25.83;;;13.00;99.90;;;;;;4995125;28;25072;-63
2021/10/02 04:21:24;;;;;;;41.20;25.80;;;13.00;99.90;;;;;;4998044;28;25158;-64
2021/10/02 04:23:51;;;;;;;39.95;24.75;;;13.10;99.90;;;;;;5004312;28;25092;-63
2021/10/02 04:26:17;;;;;;;41.22;24.90;;;13.00;99.90;;;;;;4995880;28;25076;-63
2021/10/02 04:28:43;;;;;;;35.72;24.00;;;13.10;99.90;;;;;;4999823;28;25074;-64
2021/10/02 04:31:09;;;;;;;42.13;24.80;;;13.10;99.90;;;;;;5000965;28;25047;-63
2021/10/02 04:33:35;;;;;;;45.33;27.13;;;13.10;99.90;;;;;;5002931;28;25058;-62
2021/10/02 04:36:01;;;;;;;51.95;28.67;;;13.10;99.90;;;;;;5002051;28;25100;-63
2021/10/02 04:38:26;;;;;;;43.97;28.08;;;13.10;99.90;;;;;;5004366;28;25080;-61
2021/10/02 04:40:54;;;;;;;43.90;28.88;;;13.00;99.90;;;;;;5045974;22;25099;-70
2021/10/02 04:43:23;;;;;;;46.65;29.13;;;13.10;99.90;;;;;;5044824;28;25096;-71
2021/10/02 04:45:49;;;;;;;50.28;29.35;;;13.00;99.90;;;;;;5063733;28;25169;-72
2021/10/02 04:48:15;;;;;;;55.45;30.80;;;12.90;99.90;;;;;;5066061;28;25142;-71
2021/10/02 04:50:40;;;;;;;44.47;31.88;;;12.90;99.90;;;;;;5054089;28;25049;-72
2021/10/02 04:53:06;;;;;;;45.20;27.15;;;13.00;99.90;;;;;;5064296;28;25120;-72
2021/10/02 04:55:32;;;;;;;50.33;30.90;;;13.00;99.90;;;;;;5062407;28;25060;-70
2021/10/02 04:57:57;;;;;;;53.67;31.60;;;12.90;99.90;;;;;;5053285;28;25153;-70
2021/10/02 05:00:23;;;;;;;48.92;29.40;;;12.80;99.90;;;;;;5062229;28;25071;-71
2021/10/02 05:02:49;;;;;;;46.00;29.45;;;12.80;99.90;;;;;;5066951;28;25096;-71
2021/10/02 05:05:14;;;;;;;57.95;32.95;;;12.80;99.90;;;;;;5071351;28;25054;-71
2021/10/02 05:07:40;;;;;;;54.13;32.55;;;12.80;99.90;;;;;;5068860;28;25099;-70
2021/10/02 05:10:06;;;;;;;49.67;32.60;;;12.70;99.90;;;;;;5028090;28;25090;-72
2021/10/02 05:12:32;;;;;;;55.85;33.63;;;12.70;99.90;;;;;;5066755;28;25068;-70
2021/10/02 05:14:58;;;;;;;56.25;31.85;;;12.60;99.90;;;;;;5065878;28;25074;-71
2021/10/02 05:17:23;;;;;;;52.60;30.60;;;12.60;99.90;;;;;;5066862;28;25055;-73
2021/10/02 05:19:50;;;;;;;55.53;29.65;;;12.50;99.90;;;;;;5067250;28;25065;-70
2021/10/02 05:22:16;;;;;;;47.13;26.80;;;12.50;99.90;;;;;;5065434;28;25085;-72
2021/10/02 05:24:41;;;;;;;50.92;29.65;;;12.40;99.90;;;;;;5063255;28;25066;-71
2021/10/02 05:27:08;;;;;;;44.95;27.13;;;12.40;99.90;;;;;;5069093;28;25112;-71
2021/10/02 05:29:35;;;;;;;41.13;25.02;;;12.40;99.90;;;;;;5075281;28;25173;-71
2021/10/02 05:32:02;;;;;;;37.00;24.15;;;12.30;99.90;;;;;;5075171;28;25074;-73
2021/10/02 05:34:28;;;;;;;39.53;22.55;;;12.30;99.90;;;;;;5078743;28;25095;-73
2021/10/02 05:36:54;;;;;;;33.55;22.17;;;12.50;99.90;;;;;;5073380;28;25076;-73
2021/10/02 05:39:19;;;;;;;47.78;25.55;;;12.40;99.90;;;;;;5047873;28;25110;-72
2021/10/02 05:41:46;;;;;;;46.63;27.50;;;12.40;99.90;;;;;;5045955;28;25097;-71
2021/10/02 05:44:11;;;;;;;48.28;25.98;;;12.40;99.90;;;;;;5055029;28;25093;-71
2021/10/02 05:46:37;;;;;;;48.65;26.58;;;12.30;99.90;;;;;;5060684;28;25121;-70
2021/10/02 05:49:03;;;;;;;45.50;26.23;;;12.30;99.90;;;;;;5060584;28;25048;-72
2021/10/02 05:51:29;;;;;;;49.53;26.38;;;12.20;99.90;;;;;;5058811;28;25113;-72
2021/10/02 05:53:55;;;;;;;47.53;26.38;;;12.20;99.90;;;;;;5043395;28;25067;-72
2021/10/02 05:56:21;;;;;;;45.25;27.02;;;12.10;99.90;;;;;;5058438;28;25079;-72
2021/10/02 05:58:46;;;;;;;39.53;21.92;;;12.10;99.90;;;;;;5060603;28;25150;-71
2021/10/02 06:01:12;;;;;;;50.92;27.58;;;12.20;99.90;;;;;;5063486;28;25103;-71
2021/10/02 06:03:38;;;;;;;50.10;27.58;;;12.10;99.90;;;;;;5067398;28;25129;-71
2021/10/02 06:06:03;;;;;;;47.40;26.42;;;12.10;99.90;;;;;;5056182;28;25126;-70
2021/10/02 06:08:29;;;;;;;39.65;25.20;;;12.20;99.90;;;;;;5066679;28;25063;-71
2021/10/02 06:10:55;;;;;;;47.13;27.05;;;12.10;99.90;;;;;;5067241;28;25084;-72
2021/10/02 06:13:22;;;;;;;41.67;26.08;;;12.20;99.90;;;;;;5064143;28;25109;-73
2021/10/02 06:15:48;;;;;;;48.60;27.73;;;12.10;99.90;;;;;;5067427;28;25076;-70
2021/10/02 06:18:13;;;;;;;44.65;25.27;;;12.20;99.90;;;;;;5065568;28;25062;-71
2021/10/02 06:20:39;;;;;;;44.92;26.67;;;12.20;99.90;;;;;;5059334;28;25092;-71
2021/10/02 06:23:04;;;;;;;42.80;26.85;;;12.20;99.90;;;;;;5049308;28;25125;-70
2021/10/02 06:25:31;;;;;;;43.28;25.00;;;12.20;99.90;;;;;;5051793;28;25062;-71
2021/10/02 06:27:57;;;;;;;38.03;24.10;;;12.10;99.90;;;;;;5049639;28;25141;-70
2021/10/02 06:30:22;;;;;;;42.90;26.58;;;12.20;99.90;;;;;;5050602;28;25079;-71
2021/10/02 06:32:48;;;;;;;33.80;21.80;;;12.20;99.90;;;;;;5054540;28;25068;-70
2021/10/02 06:35:14;;;;;;;44.35;25.55;;;12.20;99.90;;;;;;5061643;28;25089;-70
2021/10/02 06:37:40;;;;;;;43.80;25.13;;;12.10;99.90;;;;;;5070605;28;25083;-69
2021/10/02 06:40:07;;;;;;;38.75;22.88;;;12.10;99.90;;;;;;5075397;28;25082;-70
2021/10/02 06:42:33;;;;;;;38.55;25.00;;;12.10;99.90;;;;;;5076298;28;25085;-71
2021/10/02 06:45:00;;;;;;;38.80;23.95;;;12.10;99.90;;;;;;5082206;28;25074;-67
2021/10/02 06:47:26;;;;;;;37.47;22.60;;;12.20;99.90;;;;;;5069420;28;25058;-71
2021/10/02 06:49:57;;;;;;;39.92;21.50;;;12.10;99.90;;;;;;5068384;28;25105;-69
2021/10/02 06:52:26;;;;;;;33.90;21.08;;;12.20;99.90;;;;;;5067273;28;25071;-71
2021/10/02 06:54:51;;;;;;;29.05;20.40;;;12.20;99.90;;;;;;5064740;28;25049;-72
2021/10/02 06:57:17;;;;;;;35.20;20.65;;;12.40;99.90;;;;;;5076737;28;25067;-72
2021/10/02 06:59:43;;;;;;;33.65;19.15;;;12.40;99.90;;;;;;5070498;28;25058;-70
2021/10/02 07:02:08;;;;;;;33.03;19.67;;;12.40;99.90;;;;;;5070175;28;25043;-71
2021/10/02 07:04:34;;;;;;;33.13;18.65;;;12.50;99.90;;;;;;5068527;28;25072;-72
2021/10/02 07:06:59;;;;;;;27.67;18.20;;;12.40;99.90;;;;;;5070163;28;25050;-71
2021/10/02 07:09:25;;;;;;;31.08;17.63;;;12.40;99.90;;;;;;5066812;28;25075;-70
2021/10/02 07:11:51;;;;;;;28.02;18.13;;;12.40;99.90;;;;;;5079152;28;25078;-70
2021/10/02 07:14:17;;;;;;;28.02;17.58;;;12.40;99.90;;;;;;5053830;28;25143;-70
2021/10/02 07:16:43;;;;;;;29.75;16.80;;;12.50;99.90;;;;;;5071420;28;25085;-69
2021/10/02 07:19:08;;;;;;;29.77;15.43;;;12.40;99.90;;;;;;5067975;28;25082;-70
2021/10/02 07:21:34;;;;;;;23.02;15.50;;;12.50;99.90;;;;;;5071702;28;25145;-70
2021/10/02 07:23:59;;;;;;;29.23;15.68;;;12.60;99.90;;;;;;5073983;28;25075;-70
2021/10/02 07:26:25;;;;;;;26.20;15.60;;;12.60;99.90;;;;;;5070959;28;25070;-69
2021/10/02 07:28:52;;;;;;;24.20;14.43;;;12.50;99.90;;;;;;5067034;28;25066;-70
2021/10/02 07:31:18;;;;;;;25.17;15.60;;;12.70;99.90;;;;;;5064358;28;25063;-71
2021/10/02 07:33:44;;;;;;;27.95;15.65;;;12.60;99.90;;;;;;5066583;28;25088;-70
2021/10/02 07:36:10;;;;;;;29.27;16.38;;;12.70;99.90;;;;;;5067976;28;25066;-71
2021/10/02 07:38:36;;;;;;;27.75;16.00;;;12.60;99.90;;;;;;5066269;28;25131;-70
2021/10/02 07:41:02;;;;;;;27.60;18.02;;;12.60;99.90;;;;;;5064166;28;25058;-70
2021/10/02 07:43:28;;;;;;;26.40;17.48;;;12.60;99.90;;;;;;5066511;28;25101;-69
2021/10/02 07:45:54;;;;;;;28.70;18.35;;;12.50;99.90;;;;;;5067177;28;25112;-72
2021/10/02 07:48:24;;;;;;;27.85;17.88;;;12.70;99.90;;;;;;5071606;28;25090;-71
2021/10/02 07:50:50;;;;;;;29.42;16.05;;;12.70;99.90;;;;;;5062472;28;25092;-70
2021/10/02 07:53:16;;;;;;;24.05;15.95;;;12.90;99.90;;;;;;5065999;28;25094;-70
2021/10/02 07:55:45;;;;;;;27.08;15.45;;;12.90;99.90;;;;;;5066601;28;25126;-69
2021/10/02 07:58:11;;;;;;;22.88;15.25;;;13.00;99.90;;;;;;5063077;28;25141;-70
2021/10/02 08:00:36;;;;;;;26.88;15.27;;;12.90;99.90;;;;;;5050828;28;25101;-70
2021/10/02 08:03:02;;;;;;;28.10;16.23;;;13.00;99.90;;;;;;5067614;28;25082;-70
2021/10/02 08:05:28;;;;;;;23.30;14.98;;;13.20;99.90;;;;;;5066119;28;25043;-70
2021/10/02 08:07:54;;;;;;;24.35;15.93;;;13.10;99.90;;;;;;5068882;28;25051;-70
2021/10/02 08:10:25;;;;;;;21.48;14.18;;;13.10;99.90;;;;;;5065310;28;25060;-71
2021/10/02 08:12:50;;;;;;;27.63;16.30;;;13.00;99.90;;;;;;5063648;28;25120;-72
2021/10/02 08:15:16;;;;;;;25.65;15.75;;;13.00;99.90;;;;;;5065570;28;25054;-70
2021/10/02 08:17:43;;;;;;;26.15;16.20;;;13.10;99.90;;;;;;5069824;28;25132;-70
2021/10/02 08:20:13;;;;;;;23.98;16.40;;;13.20;99.90;;;;;;5066076;28;25062;-71
2021/10/02 08:22:45;;;;;;;27.73;17.23;;;13.20;99.90;;;;;;5067784;28;25091;-71
2021/10/02 08:25:12;;;;;;;30.38;17.95;;;13.20;99.90;;;;;;5068912;28;25051;-70
2021/10/02 08:27:41;;;;;;;24.38;17.92;;;13.10;99.90;;;;;;5066011;28;25068;-69
2021/10/02 08:30:08;;;;;;;27.48;18.55;;;13.10;99.90;;;;;;5084388;28;25076;-68
2021/10/02 08:32:34;;;;;;;31.00;19.35;;;13.20;99.90;;;;;;5078184;28;25088;-72
2021/10/02 08:35:01;;;;;;;27.20;19.70;;;13.10;99.90;;;;;;5055475;28;25104;-70
2021/10/02 08:37:26;;;;;;;32.20;20.85;;;13.10;99.90;;;;;;5068265;28;25085;-71
2021/10/02 08:39:52;;;;;;;33.22;21.05;;;13.00;99.90;;;;;;5061752;28;25060;-69
2021/10/02 08:42:19;;;;;;;34.97;21.75;;;12.90;99.90;;;;;;5063089;28;25168;-68
2021/10/02 08:44:49;;;;;;;32.90;21.42;;;12.90;99.90;;;;;;5062939;28;25067;-68
2021/10/02 08:47:15;;;;;;;28.98;20.20;;;12.90;99.90;;;;;;5061122;28;25098;-70
2021/10/02 08:49:46;;;;;;;30.05;20.10;;;12.90;99.90;;;;;;5066180;28;25069;-70
2021/10/02 08:52:13;;;;;;;25.50;19.02;;;13.00;99.90;;;;;;5070090;28;25149;-69
2021/10/02 08:54:42;;;;;;;31.05;20.05;;;13.10;99.90;;;;;;5059881;28;25094;-70
2021/10/02 08:57:10;;;;;;;30.00;20.08;;;13.20;99.90;;;;;;5063751;28;25087;-67
2021/10/02 08:59:38;;;;;;;30.25;19.52;;;13.40;99.90;;;;;;5065384;28;25143;-70
2021/10/02 09:02:06;;;;;;;29.50;18.27;;;13.60;99.90;;;;;;5066026;28;25058;-71
2021/10/02 09:04:31;;;;;;;31.60;18.40;;;13.90;99.90;;;;;;5063885;28;25115;-65
2021/10/02 09:06:58;;;;;;;29.63;18.90;;;14.00;99.90;;;;;;5065063;28;25174;-71
2021/10/02 09:09:24;;;;;;;28.83;18.15;;;13.90;99.90;;;;;;5064397;28;25134;-71
2021/10/02 09:11:51;;;;;;;24.10;16.25;;;14.20;99.90;;;;;;5065690;28;25068;-70
2021/10/02 09:14:18;;;;;;;31.77;17.20;;;14.30;99.90;;;;;;5064993;28;25059;-69
2021/10/02 09:16:44;;;;;;;22.35;16.25;;;14.40;99.90;;;;;;5064974;28;25060;-69
2021/10/02 09:19:10;;;;;;;23.23;16.10;;;14.30;99.90;;;;;;5064144;28;25106;-70
2021/10/02 09:21:44;;;;;;;26.73;16.02;;;14.50;99.90;;;;;;5061357;28;25154;-70
2021/10/02 09:24:25;;;;;;;28.35;15.95;;;14.70;99.90;;;;;;5045206;28;25060;-69
2021/10/02 09:26:51;;;;;;;25.63;16.63;;;14.60;99.90;;;;;;5037719;28;25072;-75
2021/10/02 09:29:17;;;;;;;23.85;15.60;;;14.50;99.90;;;;;;5067454;28;25065;-70
2021/10/02 09:31:43;;;;;;;20.98;14.80;;;14.30;99.90;;;;;;5064527;28;25125;-72
2021/10/02 09:34:21;;;;;;;28.83;16.58;;;14.30;99.90;;;;;;5064602;28;25160;-68
2021/10/02 09:36:47;;;;;;;30.23;16.20;;;14.60;99.90;;;;;;5058822;28;25078;-71
2021/10/02 09:39:13;;;;;;;23.63;15.65;;;14.60;99.90;;;;;;5058455;28;25051;-71
2021/10/02 09:41:47;;;;;;;33.33;16.52;;;14.60;99.90;;;;;;5059408;28;25079;-70
2021/10/02 09:44:25;;;;;;;25.80;16.52;;;14.70;99.90;;;;;;5060711;28;25056;-75
2021/10/02 09:46:51;;;;;;;22.65;16.23;;;14.70;99.90;;;;;;5057296;28;25048;-71
2021/10/02 09:49:18;;;;;;;33.80;18.52;;;14.70;99.90;;;;;;5053652;28;25056;-69
2021/10/02 09:51:45;;;;;;;25.33;16.27;;;14.80;99.90;;;;;;5064220;28;25137;-71
2021/10/02 09:54:39;;;;;;;35.17;16.58;;;15.00;99.90;;;;;;5064960;28;25053;-70
2021/10/02 09:57:14;;;;;;;30.23;14.88;;;15.20;99.90;;;;;;5063890;28;25100;-70
2021/10/02 09:59:39;;;;;;;26.23;15.02;;;15.30;99.90;;;;;;5060147;28;25069;-69
2021/10/02 10:02:13;;;;;;;18.70;13.02;;;15.30;99.90;;;;;;5059991;28;25076;-70
2021/10/02 10:04:38;;;;;;;22.55;13.35;;;15.10;99.90;;;;;;5056597;28;25088;-72
2021/10/02 10:07:08;;;;;;;21.33;11.85;;;15.10;99.90;;;;;;5059989;28;25119;-73
2021/10/02 10:09:39;;;;;;;17.35;11.52;;;15.20;99.90;;;;;;5060965;28;25156;-74
2021/10/02 10:12:06;;;;;;;32.72;11.13;;;15.20;99.90;;;;;;5060224;28;25068;-71
2021/10/02 10:14:34;;;;;;;17.60;10.95;;;15.20;99.90;;;;;;5043716;28;25165;-70
2021/10/02 10:17:00;;;;;;;20.48;9.65;;;15.20;99.90;;;;;;5065955;28;25062;-70
2021/10/02 10:19:30;;;;;;;16.95;9.35;;;15.20;99.90;;;;;;5067268;28;25068;-71
2021/10/02 10:22:08;;;;;;;18.65;9.48;;;15.30;99.90;;;;;;5064537;28;25176;-71
2021/10/02 10:24:38;;;;;;;18.38;9.90;;;15.40;99.90;;;;;;5072888;28;25058;-73
2021/10/02 10:27:04;;;;;;;20.02;9.75;;;15.50;99.90;;;;;;5072223;28;25046;-69
2021/10/02 10:29:41;;;;;;;23.33;10.32;;;15.60;99.90;;;;;;5066869;28;25059;-70
2021/10/02 10:32:09;;;;;;;13.75;9.40;;;15.50;99.90;;;;;;5063754;28;25020;-69
2021/10/02 10:34:39;;;;;;;15.60;8.43;;;15.50;99.90;;;;;;5065991;28;25071;-70
2021/10/02 10:37:09;;;;;;;17.50;8.73;;;15.40;99.90;;;;;;5054990;28;25058;-74
2021/10/02 10:39:35;;;;;;;19.65;9.13;;;15.40;99.90;;;;;;5066069;28;25142;-72
2021/10/02 10:42:02;;;;;;;16.77;7.35;;;15.40;99.90;;;;;;5085418;22;25081;-64
2021/10/02 10:44:29;;;;;;;13.02;7.22;;;15.20;99.90;;;;;;5058638;28;25067;-65
2021/10/02 10:46:55;;;;;;;12.32;6.30;;;15.10;99.90;;;;;;5069390;28;25063;-63
2021/10/02 10:49:22;;;;;;;13.38;6.55;;;15.10;99.90;;;;;;5068440;28;25077;-64
2021/10/02 10:51:48;;;;;;;18.83;5.97;;;15.10;99.90;;;;;;5056776;28;25060;-62
2021/10/02 10:54:16;;;;;;;12.27;5.15;;;15.20;99.90;;;;;;5048613;28;25078;-63
2021/10/02 10:56:47;;;;;;;12.52;5.75;;;15.30;99.90;;;;;;5047225;28;25056;-66
2021/10/02 10:59:18;;;;;;;13.70;5.47;;;15.30;99.90;;;;;;5031205;28;25124;-67
2021/10/02 11:01:45;;;;;;;10.90;6.68;;;15.20;99.90;;;;;;5049281;28;25049;-64
2021/10/02 11:04:37;;;;;;;12.13;5.22;;;15.20;99.90;;;;;;5049905;28;25121;-65
2021/10/02 11:07:05;;;;;;;13.45;6.15;;;15.20;99.90;;;;;;5049409;28;25090;-64
2021/10/02 11:09:37;;;;;;;14.52;6.07;;;15.40;99.90;;;;;;5047313;28;25058;-65
2021/10/02 11:12:21;;;;;;;12.87;5.83;;;15.50;99.90;;;;;;5040786;28;25092;-63
2021/10/02 11:14:47;;;;;;;14.32;6.00;;;15.70;99.90;;;;;;5037711;28;25064;-63
2021/10/02 11:17:14;;;;;;;13.32;5.35;;;15.80;99.90;;;;;;5030628;28;25113;-64
2021/10/02 11:19:41;;;;;;;12.13;4.70;;;15.90;99.90;;;;;;5032607;28;25115;-66
2021/10/02 11:22:53;;;;;;;7.75;4.57;;;16.00;99.90;;;;;;5047807;28;25129;-67
2021/10/02 11:25:24;;;;;;;9.50;6.18;;;16.20;99.90;;;;;;5050378;28;25058;-64
2021/10/02 11:27:50;;;;;;;10.93;4.85;;;16.20;99.90;;;;;;5061515;28;25080;-63
2021/10/02 11:30:19;;;;;;;9.68;5.03;;;16.30;99.90;;;;;;5026942;28;25082;-63
2021/10/02 11:32:45;;;;;;;15.55;4.95;;;16.10;99.90;;;;;;5055139;28;25147;-66
2021/10/02 11:35:16;;;;;;;13.00;4.32;;;16.00;99.90;;;;;;5044900;28;25063;-65
2021/10/02 11:37:47;;;;;;;11.65;5.15;;;16.10;99.90;;;;;;5048706;28;25144;-64
2021/10/02 11:40:31;;;;;;;9.52;3.92;;;16.00;99.90;;;;;;5037386;28;25075;-66
2021/10/02 11:43:15;;;;;;;8.85;3.63;;;16.00;99.90;;;;;;5044260;28;25051;-67
2021/10/02 11:45:53;;;;;;;9.32;4.03;;;16.10;99.90;;;;;;5041650;28;25061;-65
2021/10/02 11:48:41;;;;;;;12.30;3.50;;;16.20;99.90;;;;;;5022389;28;25063;-62
2021/10/02 11:51:21;;;;;;;8.05;3.00;;;16.40;99.90;;;;;;5039329;28;25077;-64
2021/10/02 11:53:53;;;;;;;7.45;3.33;;;16.50;99.90;;;;;;5043081;28;25142;-64
2021/10/02 11:56:24;;;;;;;6.33;3.07;;;16.40;99.90;;;;;;5036762;28;25105;-65
2021/10/02 11:58:53;;;;;;;9.88;3.00;;;16.40;99.90;;;;;;5030825;28;25161;-63
2021/10/02 12:01:25;;;;;;;7.25;3.15;;;16.50;99.90;;;;;;5043832;28;25074;-66
2021/10/02 12:04:05;;;;;;;7.30;3.15;;;16.50;99.90;;;;;;5046032;28;25097;-65
2021/10/02 12:06:33;;;;;;;8.95;3.05;;;16.30;99.90;;;;;;5044171;28;25134;-66
2021/10/02 12:08:59;;;;;;;10.95;3.55;;;16.10;99.90;;;;;;5042084;28;25047;-65
2021/10/02 12:11:27;;;;;;;9.38;3.45;;;16.10;99.90;;;;;;5033690;28;25063;-65
2021/10/02 12:13:55;;;;;;;11.50;4.03;;;16.00;99.90;;;;;;5031758;28;25077;-64
2021/10/02 12:16:23;;;;;;;10.00;3.15;;;16.00;99.90;;;;;;5030557;28;25090;-65
2021/10/02 12:18:57;;;;;;;7.78;3.10;;;16.00;99.90;;;;;;5028275;28;25157;-66
2021/10/02 12:21:23;;;;;;;9.82;3.30;;;16.00;99.90;;;;;;5035693;28;25139;-65
2021/10/02 12:23:54;;;;;;;10.02;3.05;;;16.10;99.90;;;;;;5035688;28;25154;-65
2021/10/02 12:26:20;;;;;;;10.57;3.58;;;16.10;99.90;;;;;;5033464;28;25092;-64
2021/10/02 12:28:46;;;;;;;10.48;3.53;;;16.10;99.90;;;;;;5036288;28;25126;-66
2021/10/02 12:31:11;;;;;;;11.18;3.28;;;16.20;99.90;;;;;;5038177;28;25057;-64
2021/10/02 12:33:37;;;;;;;12.63;3.08;;;16.30;99.90;;;;;;5048929;28;25061;-65
2021/10/02 12:36:02;;;;;;;9.23;3.28;;;16.20;99.90;;;;;;5040311;28;25064;-64
2021/10/02 12:38:43;;;;;;;8.45;3.15;;;16.10;99.90;;;;;;5043549;28;25070;-63
2021/10/02 12:41:11;;;;;;;8.65;3.05;;;16.10;99.90;;;;;;5046393;28;25090;-64
2021/10/02 12:43:37;;;;;;;16.48;3.67;;;16.00;99.90;;;;;;5040997;28;25063;-63
2021/10/02 12:46:16;;;;;;;5.75;2.97;;;16.00;99.90;;;;;;5040194;28;25074;-65
2021/10/02 12:48:42;;;;;;;7.55;3.00;;;16.00;99.90;;;;;;5040433;28;25070;-63
2021/10/02 12:51:09;;;;;;;9.38;3.72;;;15.80;99.90;;;;;;5044676;28;25073;-63
2021/10/02 12:53:36;;;;;;;9.93;3.70;;;15.80;99.90;;;;;;5042996;28;25058;-63
2021/10/02 12:56:22;;;;;;;6.93;2.50;;;15.90;99.90;;;;;;5045192;28;25070;-66
2021/10/02 12:58:47;;;;;;;6.50;2.75;;;15.80;99.90;;;;;;5039703;28;25060;-64
2021/10/02 13:01:13;;;;;;;7.43;2.17;;;15.80;99.90;;;;;;5045436;28;25160;-64
2021/10/02 13:03:42;;;;;;;8.52;2.67;;;15.80;99.90;;;;;;5045392;28;25050;-64
2021/10/02 13:06:07;;;;;;;6.30;2.95;;;15.90;99.90;;;;;;5047869;28;25123;-64
2021/10/02 13:08:33;;;;;;;6.15;2.63;;;16.00;99.90;;;;;;5035053;28;25090;-64
2021/10/02 13:11:00;;;;;;;6.95;2.40;;;16.00;99.90;;;;;;5048018;28;25057;-66
2021/10/02 13:13:25;;;;;;;11.52;3.63;;;15.90;99.90;;;;;;5049998;28;25063;-63
2021/10/02 13:15:56;;;;;;;6.90;2.22;;;15.90;99.90;;;;;;5046885;28;25067;-65
2021/10/02 13:18:27;;;;;;;6.78;2.95;;;16.10;99.90;;;;;;5038688;28;25079;-65
2021/10/02 13:20:55;;;;;;;4.78;2.05;;;16.10;99.90;;;;;;5043733;28;25064;-67
2021/10/02 13:23:29;;;;;;;14.32;2.75;;;16.10;99.90;;;;;;5055018;28;25096;-64
2021/10/02 13:25:58;;;;;;;8.18;2.58;;;16.10;99.90;;;;;;5043277;28;25130;-65
2021/10/02 13:28:35;;;;;;;4.03;1.95;;;16.00;99.90;;;;;;5023347;28;25053;-64
2021/10/02 13:31:16;;;;;;;6.28;2.55;;;16.00;99.90;;;;;;5041825;28;25144;-63